createdAt,value
2018-04-09T00:00:03.201Z,13.20
2018-04-09T00:02:30.828Z,13.10
2018-04-09T00:04:58.463Z,13.10
2018-04-09T00:07:26.085Z,13.10
2018-04-09T00:09:53.710Z,13.00
2018-04-09T00:12:21.340Z,12.90
2018-04-09T00:14:49.748Z,12.80
2018-04-09T00:17:17.376Z,12.70
2018-04-09T00:19:44.993Z,12.70
2018-04-09T00:22:12.615Z,12.80
2018-04-09T00:24:41.024Z,12.70
2018-04-09T00:27:08.648Z,12.70
2018-04-09T00:29:36.281Z,12.60
2018-04-09T00:32:03.901Z,12.60
2018-04-09T00:34:32.288Z,12.60
2018-04-09T00:36:59.916Z,12.60
2018-04-09T00:39:27.541Z,12.60
2018-04-09T00:41:55.160Z,12.50
2018-04-09T00:44:22.778Z,12.50
2018-04-09T00:46:50.404Z,12.40
2018-04-09T00:49:18.036Z,12.40
2018-04-09T00:51:45.668Z,12.40
2018-04-09T00:54:13.284Z,12.40
2018-04-09T00:56:40.917Z,12.30
2018-04-09T00:59:08.541Z,12.30
2018-04-09T01:01:36.944Z,12.20
2018-04-09T01:04:04.576Z,12.20
2018-04-09T01:06:32.189Z,12.20
2018-04-09T01:08:59.820Z,12.10
2018-04-09T01:11:27.441Z,12.10
2018-04-09T01:13:55.072Z,12.10
2018-04-09T01:16:22.693Z,12.00
2018-04-09T01:18:50.316Z,12.00
2018-04-09T01:21:17.940Z,12.00
2018-04-09T01:23:45.560Z,12.10
2018-04-09T01:26:13.188Z,12.10
2018-04-09T01:28:41.578Z,11.90
2018-04-09T01:31:09.960Z,11.80
2018-04-09T01:33:38.353Z,11.80
2018-04-09T01:36:05.991Z,11.80
2018-04-09T01:38:33.608Z,11.80
2018-04-09T01:41:01.236Z,11.80
2018-04-09T01:43:29.632Z,11.80
2018-04-09T01:45:57.260Z,11.80
2018-04-09T01:48:24.880Z,11.80
2018-04-09T01:50:52.500Z,11.70
2018-04-09T01:53:20.149Z,11.60
2018-04-09T01:55:47.776Z,11.60
2018-04-09T01:58:15.401Z,11.60
2018-04-09T02:00:43.605Z,11.50
2018-04-09T02:03:12.003Z,11.50
2018-04-09T02:05:39.647Z,11.50
2018-04-09T02:08:07.256Z,11.50
2018-04-09T02:10:34.881Z,11.40
2018-04-09T02:13:02.504Z,11.40
2018-04-09T02:15:30.137Z,11.40
2018-04-09T02:17:57.756Z,11.40
2018-04-09T02:20:25.378Z,11.40
2018-04-09T02:22:53.004Z,11.40
2018-04-09T02:25:21.392Z,11.40
2018-04-09T02:27:49.017Z,11.30
2018-04-09T02:30:16.646Z,11.30
2018-04-09T02:32:44.268Z,11.30
2018-04-09T02:35:11.888Z,11.40
2018-04-09T02:37:39.509Z,11.40
2018-04-09T02:40:07.897Z,11.50
2018-04-09T02:42:35.532Z,11.50
2018-04-09T02:45:03.150Z,11.40
2018-04-09T02:47:30.773Z,11.40
2018-04-09T02:49:58.403Z,11.40
2018-04-09T02:52:26.054Z,11.40
2018-04-09T02:54:53.730Z,11.40
2018-04-09T02:57:21.307Z,11.40
2018-04-09T02:59:48.925Z,11.30
2018-04-09T03:02:17.321Z,11.30
2018-04-09T03:04:45.721Z,11.20
2018-04-09T03:07:13.340Z,11.20
2018-04-09T03:09:40.972Z,11.20
2018-04-09T03:12:08.604Z,11.20
2018-04-09T03:14:36.232Z,11.00
2018-04-09T03:17:03.866Z,11.10
2018-04-09T03:19:31.484Z,11.10
2018-04-09T03:21:59.880Z,10.90
2018-04-09T03:24:28.277Z,10.90
2018-04-09T03:26:55.904Z,10.80
2018-04-09T03:29:24.300Z,10.80
2018-04-09T03:31:52.693Z,10.80
2018-04-09T03:34:21.087Z,10.80
2018-04-09T03:36:48.716Z,10.80
2018-04-09T03:39:16.336Z,10.70
2018-04-09T03:41:43.971Z,10.80
2018-04-09T03:44:11.600Z,10.90
2018-04-09T03:46:39.216Z,10.90
2018-04-09T03:49:06.853Z,10.90
2018-04-09T03:51:34.476Z,10.80
2018-04-09T03:54:02.262Z,10.80
2018-04-09T03:56:29.853Z,10.80
2018-04-09T03:58:58.244Z,10.60
2018-04-09T04:01:25.877Z,10.60
2018-04-09T04:03:53.495Z,10.60
2018-04-09T04:06:21.136Z,10.60
2018-04-09T04:08:48.760Z,10.50
2018-04-09T04:11:16.408Z,10.50
2018-04-09T04:13:44.465Z,10.40
2018-04-09T04:16:24.087Z,10.40
2018-04-09T04:19:03.512Z,10.40
2018-04-09T04:21:43.058Z,10.40
2018-04-09T04:24:10.691Z,10.40
2018-04-09T04:26:38.316Z,10.40
2018-04-09T04:29:06.780Z,10.30
2018-04-09T04:31:35.176Z,10.30
2018-04-09T04:34:02.800Z,10.30
2018-04-09T04:36:30.426Z,10.30
2018-04-09T04:38:58.049Z,10.30
2018-04-09T04:41:25.673Z,10.30
2018-04-09T04:43:53.296Z,10.30
2018-04-09T04:46:21.689Z,10.30
2018-04-09T04:48:49.324Z,10.30
2018-04-09T04:51:16.973Z,10.30
2018-04-09T04:53:44.612Z,10.30
2018-04-09T04:56:12.245Z,10.20
2018-04-09T04:58:40.628Z,10.20
2018-04-09T05:01:08.456Z,10.20
2018-04-09T05:03:36.088Z,10.20
2018-04-09T05:06:03.708Z,10.20
2018-04-09T05:08:31.325Z,10.10
2018-04-09T05:10:58.948Z,10.20
2018-04-09T05:13:26.572Z,10.20
2018-04-09T05:15:54.201Z,10.20
2018-04-09T05:18:21.820Z,10.20
2018-04-09T05:20:49.440Z,10.20
2018-04-09T05:23:17.068Z,10.30
2018-04-09T05:25:44.688Z,10.30
2018-04-09T05:28:12.312Z,10.30
2018-04-09T05:30:40.704Z,10.50
2018-04-09T05:33:09.092Z,10.50
2018-04-09T05:35:37.480Z,10.50
2018-04-09T05:38:05.104Z,10.50
2018-04-09T05:40:32.728Z,10.60
2018-04-09T05:43:00.358Z,10.70
2018-04-09T05:45:27.978Z,10.80
2018-04-09T05:47:55.609Z,10.90
2018-04-09T05:50:23.241Z,10.90
2018-04-09T05:52:50.856Z,11.00
2018-04-09T05:55:18.485Z,11.20
2018-04-09T05:57:46.142Z,11.30
2018-04-09T06:00:13.996Z,11.40
2018-04-09T06:02:42.396Z,11.60
2018-04-09T06:05:10.016Z,11.60
2018-04-09T06:07:37.644Z,11.70
2018-04-09T06:10:06.038Z,12.00
2018-04-09T06:12:34.430Z,12.10
2018-04-09T06:15:02.049Z,12.10
2018-04-09T06:17:29.901Z,12.30
2018-04-09T06:19:57.531Z,12.40
2018-04-09T06:22:25.153Z,12.40
2018-04-09T06:24:52.772Z,12.50
2018-04-09T06:27:20.396Z,12.50
2018-04-09T06:29:48.025Z,12.60
2018-04-09T06:32:15.648Z,12.70
2018-04-09T06:34:44.043Z,12.80
2018-04-09T06:37:11.677Z,12.70
2018-04-09T06:39:39.292Z,12.80
2018-04-09T06:42:06.919Z,12.90
2018-04-09T06:44:34.570Z,13.00
2018-04-09T06:47:02.205Z,13.10
2018-04-09T06:49:29.828Z,13.30
2018-04-09T06:51:58.220Z,13.50
2018-04-09T06:54:25.841Z,13.50
2018-04-09T06:56:53.468Z,13.60
2018-04-09T06:59:21.101Z,13.70
2018-04-09T07:01:48.736Z,13.80
2018-04-09T07:04:16.356Z,13.90
2018-04-09T07:06:43.981Z,14.10
2018-04-09T07:09:13.120Z,14.20
2018-04-09T07:11:40.743Z,14.20
2018-04-09T07:14:08.380Z,14.30
2018-04-09T07:16:36.012Z,14.30
2018-04-09T07:19:03.684Z,14.60
2018-04-09T07:21:31.307Z,14.60
2018-04-09T07:23:58.944Z,14.70
2018-04-09T07:26:26.702Z,14.70
2018-04-09T07:28:54.332Z,14.80
2018-04-09T07:31:22.726Z,15.10
2018-04-09T07:33:51.132Z,15.00
2018-04-09T07:36:18.772Z,15.00
2018-04-09T07:38:46.409Z,15.00
2018-04-09T07:41:14.029Z,15.00
2018-04-09T07:43:41.657Z,15.00
2018-04-09T07:46:10.044Z,15.30
2018-04-09T07:48:38.445Z,15.50
2018-04-09T07:51:06.074Z,15.40
2018-04-09T07:53:33.704Z,15.50
2018-04-09T07:56:01.332Z,15.40
2018-04-09T07:58:29.736Z,15.50
2018-04-09T08:00:57.357Z,15.40
2018-04-09T08:03:24.988Z,15.40
2018-04-09T08:05:52.626Z,15.70
2018-04-09T08:08:20.255Z,15.70
2018-04-09T08:10:47.914Z,15.90
2018-04-09T08:13:15.563Z,15.70
2018-04-09T08:15:43.166Z,15.80
2018-04-09T08:18:10.796Z,15.80
2018-04-09T08:20:38.420Z,15.80
2018-04-09T08:23:06.053Z,15.90
2018-04-09T08:25:33.684Z,16.00
2018-04-09T08:28:01.321Z,15.90
2018-04-09T08:30:28.949Z,15.90
2018-04-09T08:32:56.581Z,15.80
2018-04-09T08:35:24.208Z,16.00
2018-04-09T08:37:51.836Z,16.20
2018-04-09T08:40:19.459Z,16.40
2018-04-09T08:42:47.088Z,16.40
2018-04-09T08:45:14.715Z,16.20
2018-04-09T08:47:42.345Z,16.10
2018-04-09T08:50:09.977Z,16.20
2018-04-09T08:52:37.601Z,16.50
2018-04-09T08:55:05.232Z,16.60
2018-04-09T08:57:33.622Z,16.50
2018-04-09T09:00:02.019Z,16.50
2018-04-09T09:02:29.644Z,16.50
2018-04-09T09:04:57.268Z,16.40
2018-04-09T09:07:24.892Z,16.40
2018-04-09T09:09:53.304Z,16.50
2018-04-09T09:12:20.933Z,16.50
2018-04-09T09:14:48.559Z,16.60
2018-04-09T09:17:16.191Z,16.70
2018-04-09T09:19:43.820Z,17.10
2018-04-09T09:22:12.216Z,17.40
2018-04-09T09:24:40.612Z,17.80
2018-04-09T09:27:09.008Z,17.70
2018-04-09T09:29:36.637Z,17.70
2018-04-09T09:32:04.392Z,18.20
2018-04-09T09:34:32.020Z,18.10
2018-04-09T09:36:59.649Z,18.90
2018-04-09T09:39:28.050Z,18.80
2018-04-09T09:41:55.673Z,18.70
2018-04-09T09:44:23.486Z,18.70
2018-04-09T09:46:51.875Z,18.60
2018-04-09T09:49:19.565Z,18.60
2018-04-09T09:51:47.128Z,18.80
2018-04-09T09:54:14.765Z,18.90
2018-04-09T09:56:42.416Z,19.10
2018-04-09T09:59:10.032Z,19.60
2018-04-09T10:01:37.668Z,19.00
2018-04-09T10:04:06.056Z,19.50
2018-04-09T10:06:33.680Z,19.50
2018-04-09T10:09:01.309Z,19.80
2018-04-09T10:11:28.952Z,20.00
2018-04-09T10:13:57.336Z,20.00
2018-04-09T10:16:26.123Z,20.00
2018-04-09T10:18:55.336Z,20.60
2018-04-09T10:21:22.957Z,20.50
2018-04-09T10:23:50.585Z,20.80
2018-04-09T10:26:18.216Z,20.70
2018-04-09T10:28:46.616Z,20.20
2018-04-09T10:31:14.257Z,20.20
2018-04-09T10:33:42.654Z,19.70
2018-04-09T10:36:11.049Z,19.60
2018-04-09T10:38:38.700Z,19.60
2018-04-09T10:41:06.312Z,19.40
2018-04-09T10:43:33.954Z,19.60
2018-04-09T10:46:01.576Z,19.80
2018-04-09T10:48:29.201Z,19.90
2018-04-09T10:50:56.829Z,19.90
2018-04-09T10:53:25.224Z,19.90
2018-04-09T10:55:52.852Z,19.90
2018-04-09T10:58:22.141Z,20.20
2018-04-09T11:00:49.733Z,20.20
2018-04-09T11:03:17.361Z,20.30
2018-04-09T11:05:44.993Z,20.30
2018-04-09T11:08:12.620Z,20.70
2018-04-09T11:10:40.244Z,20.90
2018-04-09T11:13:07.872Z,20.80
2018-04-09T11:15:36.272Z,20.60
2018-04-09T11:18:03.933Z,20.60
2018-04-09T11:20:31.534Z,20.50
2018-04-09T11:22:59.168Z,20.60
2018-04-09T11:25:26.796Z,20.70
2018-04-09T11:27:54.425Z,20.90
2018-04-09T11:30:22.052Z,20.80
2018-04-09T11:32:49.690Z,20.50
2018-04-09T11:35:17.324Z,20.40
2018-04-09T11:37:44.969Z,20.60
2018-04-09T11:40:12.598Z,20.80
2018-04-09T11:42:40.994Z,21.90
2018-04-09T11:45:08.623Z,21.90
2018-04-09T11:47:36.250Z,22.00
2018-04-09T11:50:03.886Z,21.70
2018-04-09T11:52:31.505Z,21.80
2018-04-09T11:54:59.134Z,21.80
2018-04-09T11:57:27.524Z,21.70
2018-04-09T11:59:55.919Z,21.60
2018-04-09T12:02:23.550Z,21.60
2018-04-09T12:04:51.175Z,21.50
2018-04-09T12:07:18.811Z,21.70
2018-04-09T12:09:47.210Z,22.10
2018-04-09T12:12:14.839Z,22.00
2018-04-09T12:14:43.247Z,22.00
2018-04-09T12:17:10.874Z,22.00
2018-04-09T12:19:38.520Z,21.90
2018-04-09T12:22:06.140Z,21.60
2018-04-09T12:24:33.775Z,21.50
2018-04-09T12:27:01.409Z,21.40
2018-04-09T12:29:29.039Z,21.30
2018-04-09T12:31:56.666Z,21.40
2018-04-09T12:34:25.811Z,21.80
2018-04-09T12:36:53.443Z,21.80
2018-04-09T12:39:21.094Z,22.30
2018-04-09T12:41:48.721Z,23.00
2018-04-09T12:44:16.347Z,23.70
2018-04-09T12:46:43.984Z,23.70
2018-04-09T12:49:11.602Z,23.20
2018-04-09T12:51:39.247Z,22.70
2018-04-09T12:54:06.878Z,22.50
2018-04-09T12:56:34.499Z,22.30
2018-04-09T12:59:02.130Z,22.00
2018-04-09T13:01:29.803Z,21.70
2018-04-09T13:03:57.394Z,21.80
2018-04-09T13:06:25.024Z,21.70
2018-04-09T13:08:52.646Z,21.90
2018-04-09T13:11:20.274Z,22.00
2018-04-09T13:13:48.668Z,21.80
2018-04-09T13:16:16.297Z,21.80
2018-04-09T13:18:43.926Z,21.80
2018-04-09T13:21:11.550Z,21.90
2018-04-09T13:23:39.944Z,22.40
2018-04-09T13:26:08.342Z,22.70
2018-04-09T13:28:35.974Z,22.60
2018-04-09T13:31:03.603Z,22.70
2018-04-09T13:33:31.234Z,22.80
2018-04-09T13:35:58.863Z,22.90
2018-04-09T13:38:26.494Z,23.30
2018-04-09T13:40:54.118Z,23.30
2018-04-09T13:43:22.509Z,23.40
2018-04-09T13:45:50.906Z,23.30
2018-04-09T13:48:18.541Z,23.30
2018-04-09T13:50:46.931Z,23.10
2018-04-09T13:53:15.330Z,23.00
2018-04-09T13:55:44.913Z,22.90
2018-04-09T13:58:12.534Z,22.80
2018-04-09T14:00:40.551Z,22.60
2018-04-09T14:03:08.182Z,22.50
2018-04-09T14:05:35.808Z,22.40
2018-04-09T14:08:04.198Z,22.30
2018-04-09T14:10:31.830Z,22.30
2018-04-09T14:12:59.454Z,22.30
2018-04-09T14:15:27.084Z,22.40
2018-04-09T14:17:55.491Z,22.20
2018-04-09T14:20:23.131Z,22.20
2018-04-09T14:22:51.535Z,22.00
2018-04-09T14:25:19.278Z,22.00
2018-04-09T14:28:02.194Z,21.80
2018-04-09T14:30:30.593Z,21.70
2018-04-09T14:32:58.982Z,21.70
2018-04-09T14:35:26.611Z,21.70
2018-04-09T14:37:54.242Z,21.60
2018-04-09T14:40:21.866Z,21.60
2018-04-09T14:42:50.256Z,21.60
2018-04-09T14:45:18.967Z,21.60
2018-04-09T14:47:46.671Z,21.60
2018-04-09T14:50:14.300Z,21.60
2018-04-09T14:52:41.931Z,21.60
2018-04-09T14:55:09.579Z,21.60
2018-04-09T14:57:37.206Z,21.50
2018-04-09T15:00:04.839Z,21.40
2018-04-09T15:02:33.235Z,21.40
2018-04-09T15:05:00.858Z,21.40
2018-04-09T15:07:36.293Z,21.40
2018-04-09T15:10:03.934Z,21.50
2018-04-09T15:12:31.564Z,21.40
2018-04-09T15:14:59.967Z,21.30
2018-04-09T15:17:27.591Z,21.30
2018-04-09T15:19:55.215Z,21.30
2018-04-09T15:22:22.847Z,21.30
2018-04-09T15:24:51.253Z,21.10
2018-04-09T15:27:18.875Z,21.10
2018-04-09T15:29:46.502Z,21.10
2018-04-09T15:32:14.134Z,21.10
2018-04-09T15:37:33.991Z,21.00
2018-04-09T15:40:01.639Z,21.00
2018-04-09T15:42:29.270Z,21.00
2018-04-09T15:44:57.048Z,21.00
2018-04-09T15:47:24.662Z,21.00
2018-04-09T15:49:52.285Z,21.00
2018-04-09T15:52:19.914Z,21.00
2018-04-09T15:54:48.327Z,21.00
2018-04-09T15:57:16.699Z,21.10
2018-04-09T15:59:44.337Z,21.00
2018-04-09T16:02:11.962Z,21.00
2018-04-09T16:04:39.595Z,21.00
2018-04-09T16:07:07.240Z,20.90
2018-04-09T16:09:35.635Z,20.90
2018-04-09T16:12:04.027Z,20.90
2018-04-09T16:14:31.655Z,20.90
2018-04-09T16:16:59.282Z,20.90
2018-04-09T16:22:16.047Z,20.90
2018-04-09T16:24:45.182Z,20.70
2018-04-09T16:27:12.810Z,20.70
2018-04-09T16:29:40.483Z,20.60
2018-04-09T16:32:08.067Z,20.60
2018-04-09T16:34:36.468Z,20.50
2018-04-09T16:37:04.094Z,20.50
2018-04-09T16:39:31.718Z,20.40
2018-04-09T16:41:59.346Z,20.40
2018-04-09T16:44:26.978Z,20.40
2018-04-09T16:46:54.607Z,20.30
2018-04-09T16:49:22.234Z,20.30
2018-04-09T16:51:50.626Z,20.20
2018-04-09T16:54:19.025Z,20.20
2018-04-09T16:56:46.650Z,20.10
2018-04-09T16:59:14.278Z,20.10
2018-04-09T17:01:41.906Z,20.00
2018-04-09T17:04:10.312Z,19.90
2018-04-09T17:06:37.938Z,19.90
2018-04-09T17:09:05.565Z,19.90
2018-04-09T17:11:33.199Z,19.90
2018-04-09T17:14:00.818Z,19.90
2018-04-09T17:16:28.446Z,19.80
2018-04-09T17:18:56.074Z,19.70
2018-04-09T17:21:23.707Z,19.60
2018-04-09T17:23:51.344Z,19.60
2018-04-09T17:26:18.989Z,19.50
2018-04-09T17:28:47.387Z,19.40
2018-04-09T17:31:15.026Z,19.40
2018-04-09T17:33:43.418Z,19.30
2018-04-09T17:36:11.815Z,19.30
2018-04-09T17:38:39.445Z,19.30
2018-04-09T17:41:07.078Z,19.10
2018-04-09T17:43:39.894Z,19.00
2018-04-09T17:46:08.294Z,18.90
2018-04-09T17:48:36.699Z,18.90
2018-04-09T17:51:04.327Z,18.80
2018-04-09T17:53:31.958Z,18.90
2018-04-09T17:55:59.585Z,18.90
2018-04-09T17:58:28.008Z,18.70
2018-04-09T18:00:55.632Z,18.70
2018-04-09T18:03:24.038Z,18.60
2018-04-09T18:05:51.663Z,18.60
2018-04-09T18:08:19.287Z,18.50
2018-04-09T18:10:46.914Z,18.40
2018-04-09T18:13:15.310Z,18.10
2018-04-09T18:15:42.946Z,18.10
2018-04-09T18:18:10.571Z,18.00
2018-04-09T18:20:39.198Z,18.00
2018-04-09T18:23:06.826Z,18.00
2018-04-09T18:25:34.458Z,17.90
2018-04-09T18:28:02.847Z,17.80
2018-04-09T18:30:30.490Z,17.70
2018-04-09T18:32:58.895Z,17.70
2018-04-09T18:35:27.446Z,17.60
2018-04-09T18:37:55.079Z,17.50
2018-04-09T18:40:22.707Z,17.30
2018-04-09T18:42:51.115Z,17.20
2018-04-09T18:45:18.743Z,17.20
2018-04-09T18:47:47.233Z,17.30
2018-04-09T18:50:15.664Z,17.30
2018-04-09T18:52:43.359Z,17.30
2018-04-09T18:55:10.992Z,17.00
2018-04-09T18:57:38.687Z,16.90
2018-04-09T19:00:06.347Z,16.80
2018-04-09T19:02:33.997Z,16.60
2018-04-09T19:05:01.658Z,16.70
2018-04-09T19:07:29.305Z,16.60
2018-04-09T19:09:57.731Z,16.40
2018-04-09T19:12:25.390Z,16.40
2018-04-09T19:14:53.053Z,16.30
2018-04-09T19:17:20.735Z,16.30
2018-04-09T19:19:48.396Z,16.30
2018-04-09T19:22:16.027Z,16.30
2018-04-09T19:24:43.691Z,16.30
2018-04-09T19:27:11.339Z,16.20
2018-04-09T19:29:39.770Z,16.10
2018-04-09T19:32:07.429Z,16.10
2018-04-09T19:34:35.111Z,16.10
2018-04-09T19:37:02.813Z,16.10
2018-04-09T19:39:30.502Z,16.10
2018-04-09T19:42:01.527Z,16.00
2018-04-09T19:44:29.192Z,16.00
2018-04-09T19:46:56.862Z,16.00
2018-04-09T19:49:24.561Z,15.90
2018-04-09T19:51:52.291Z,15.90
2018-04-09T19:54:21.146Z,16.00
2018-04-09T19:56:48.872Z,15.90
2018-04-09T19:59:17.591Z,15.80
2018-04-09T20:01:47.198Z,15.80
2018-04-09T20:04:14.879Z,15.80
2018-04-09T20:06:42.532Z,15.80
2018-04-09T20:09:10.361Z,15.70
2018-04-09T20:11:38.822Z,15.50
2018-04-09T20:14:08.523Z,15.50
2018-04-09T20:16:37.036Z,15.40
2018-04-09T20:19:04.718Z,15.30
2018-04-09T20:21:36.323Z,15.30
2018-04-09T20:24:04.013Z,15.20
2018-04-09T20:26:31.736Z,15.30
2018-04-09T20:28:59.393Z,15.20
2018-04-09T20:31:27.052Z,15.20
2018-04-09T20:33:54.682Z,15.10
2018-04-09T20:36:22.322Z,15.10
2018-04-09T20:38:49.986Z,15.10
2018-04-09T20:41:17.623Z,15.10
2018-04-09T20:43:45.259Z,15.10
2018-04-09T20:46:12.923Z,15.20
2018-04-09T20:48:40.567Z,15.10
2018-04-09T20:51:08.210Z,15.10
2018-04-09T20:53:35.858Z,15.20
2018-04-09T20:56:03.501Z,15.20
2018-04-09T20:58:32.711Z,15.10
2018-04-09T21:01:00.366Z,15.10
2018-04-09T21:03:28.004Z,15.10
2018-04-09T21:05:55.634Z,15.10
2018-04-09T21:08:23.293Z,15.10
2018-04-09T21:10:50.931Z,15.00
2018-04-09T21:13:18.575Z,15.00
2018-04-09T21:15:46.237Z,15.00
2018-04-09T21:18:13.879Z,15.00
2018-04-09T21:20:41.514Z,15.00
2018-04-09T21:23:09.938Z,14.90
2018-04-09T21:25:37.585Z,14.90
2018-04-09T21:28:05.241Z,14.90
2018-04-09T21:30:32.892Z,14.80
2018-04-09T21:33:01.297Z,14.80
2018-04-09T21:35:28.957Z,14.80
2018-04-09T21:37:57.366Z,14.80
2018-04-09T21:40:25.002Z,14.80
2018-04-09T21:42:52.647Z,14.70
2018-04-09T21:45:20.286Z,14.70
2018-04-09T21:47:48.111Z,14.70
2018-04-09T21:50:15.751Z,14.70
2018-04-09T21:52:43.402Z,14.60
2018-04-09T21:55:11.042Z,14.60
2018-04-09T21:57:38.677Z,14.70
2018-04-09T22:00:11.447Z,14.70
2018-04-09T22:02:39.855Z,14.70
2018-04-09T22:05:07.503Z,14.60
2018-04-09T22:07:35.151Z,14.60
2018-04-09T22:10:03.551Z,14.50
2018-04-09T22:12:31.198Z,14.50
2018-04-09T22:14:59.626Z,14.50
2018-04-09T22:17:27.263Z,14.50
2018-04-09T22:19:55.670Z,14.40
2018-04-09T22:22:23.910Z,14.40
2018-04-09T22:24:52.326Z,14.40
2018-04-09T22:27:19.966Z,14.30
2018-04-09T22:29:48.392Z,14.20
2018-04-09T22:32:16.035Z,14.20
2018-04-09T22:34:44.699Z,14.20
2018-04-09T22:37:13.123Z,14.20
2018-04-09T22:39:40.771Z,14.20
2018-04-09T22:42:09.174Z,14.30
2018-04-09T22:44:36.830Z,14.30
2018-04-09T22:47:04.467Z,14.30
2018-04-09T22:49:32.875Z,14.20
2018-04-09T22:52:00.508Z,14.20
2018-04-09T22:54:28.162Z,14.10
2018-04-09T22:56:55.806Z,14.00
2018-04-09T22:59:23.446Z,14.00
2018-04-09T23:01:51.082Z,14.10
2018-04-09T23:04:19.482Z,14.00
2018-04-09T23:06:47.138Z,13.90
2018-04-09T23:09:15.543Z,13.90
2018-04-09T23:11:43.179Z,13.90
2018-04-09T23:14:10.846Z,14.10
2018-04-09T23:16:38.484Z,14.10
2018-04-09T23:19:06.114Z,14.00
2018-04-09T23:21:33.770Z,14.20
2018-04-09T23:24:01.406Z,14.20
2018-04-09T23:26:29.050Z,14.20
2018-04-09T23:28:56.695Z,14.30
2018-04-09T23:31:24.334Z,14.30
2018-04-09T23:33:51.971Z,14.40
2018-04-09T23:36:23.550Z,14.50
2018-04-09T23:38:51.958Z,14.80
2018-04-09T23:41:19.591Z,14.80
2018-04-09T23:43:48.018Z,14.90
2018-04-09T23:46:15.654Z,14.90
2018-04-09T23:48:44.066Z,15.10
2018-04-09T23:51:11.692Z,15.10
2018-04-09T23:53:40.093Z,14.80
2018-04-09T23:56:07.722Z,14.80
2018-04-09T23:58:35.351Z,14.70
